sensor_id;sensor_type;location;lat;lon;timestamp;P1;durP1;ratioP1;P2;durP2;ratioP2
46288;SDS011;63105;46.158;14.604;2023-06-22T00:02:12;7.63;;;4.30;;
46288;SDS011;63105;46.158;14.604;2023-06-22T00:04:37;7.27;;;4.07;;
46288;SDS011;63105;46.158;14.604;2023-06-22T00:07:02;7.67;;;4.10;;
46288;SDS011;63105;46.158;14.604;2023-06-22T00:09:27;7.30;;;4.22;;
46288;SDS011;63105;46.158;14.604;2023-06-22T00:11:53;5.40;;;3.90;;
46288;SDS011;63105;46.158;14.604;2023-06-22T00:14:18;6.33;;;4.00;;
46288;SDS011;63105;46.158;14.604;2023-06-22T00:16:43;6.23;;;4.00;;
46288;SDS011;63105;46.158;14.604;2023-06-22T00:19:08;7.20;;;4.10;;
46288;SDS011;63105;46.158;14.604;2023-06-22T00:21:36;7.25;;;4.13;;
46288;SDS011;63105;46.158;14.604;2023-06-22T00:24:02;7.60;;;4.03;;
46288;SDS011;63105;46.158;14.604;2023-06-22T00:26:27;7.53;;;4.50;;
46288;SDS011;63105;46.158;14.604;2023-06-22T00:28:53;7.03;;;4.30;;
46288;SDS011;63105;46.158;14.604;2023-06-22T00:31:18;7.97;;;4.53;;
46288;SDS011;63105;46.158;14.604;2023-06-22T00:33:43;6.55;;;4.30;;
46288;SDS011;63105;46.158;14.604;2023-06-22T00:36:08;7.93;;;4.23;;
46288;SDS011;63105;46.158;14.604;2023-06-22T00:38:34;7.35;;;4.30;;
46288;SDS011;63105;46.158;14.604;2023-06-22T00:40:59;5.60;;;4.18;;
46288;SDS011;63105;46.158;14.604;2023-06-22T00:43:24;6.35;;;3.97;;
46288;SDS011;63105;46.158;14.604;2023-06-22T00:45:50;7.30;;;4.40;;
46288;SDS011;63105;46.158;14.604;2023-06-22T00:48:15;8.13;;;4.30;;
46288;SDS011;63105;46.158;14.604;2023-06-22T00:50:40;6.97;;;4.70;;
46288;SDS011;63105;46.158;14.604;2023-06-22T00:53:06;6.25;;;4.15;;
46288;SDS011;63105;46.158;14.604;2023-06-22T00:55:38;6.65;;;4.57;;
46288;SDS011;63105;46.158;14.604;2023-06-22T00:58:04;7.30;;;4.45;;
46288;SDS011;63105;46.158;14.604;2023-06-22T01:00:32;6.43;;;4.40;;
46288;SDS011;63105;46.158;14.604;2023-06-22T01:02:58;7.10;;;4.10;;
46288;SDS011;63105;46.158;14.604;2023-06-22T01:05:23;7.90;;;4.17;;
46288;SDS011;63105;46.158;14.604;2023-06-22T01:13:44;7.28;;;4.50;;
46288;SDS011;63105;46.158;14.604;2023-06-22T01:18:14;6.95;;;4.43;;
46288;SDS011;63105;46.158;14.604;2023-06-22T01:20:41;6.93;;;4.63;;
46288;SDS011;63105;46.158;14.604;2023-06-22T01:23:12;6.13;;;4.43;;
46288;SDS011;63105;46.158;14.604;2023-06-22T01:25:45;6.80;;;4.55;;
46288;SDS011;63105;46.158;14.604;2023-06-22T01:30:40;9.27;;;4.85;;
46288;SDS011;63105;46.158;14.604;2023-06-22T01:33:06;6.97;;;4.72;;
46288;SDS011;63105;46.158;14.604;2023-06-22T01:35:31;6.63;;;4.75;;
46288;SDS011;63105;46.158;14.604;2023-06-22T01:37:57;6.57;;;4.80;;
46288;SDS011;63105;46.158;14.604;2023-06-22T01:40:23;7.03;;;4.35;;
46288;SDS011;63105;46.158;14.604;2023-06-22T01:42:48;6.68;;;4.65;;
46288;SDS011;63105;46.158;14.604;2023-06-22T01:45:15;6.15;;;4.53;;
46288;SDS011;63105;46.158;14.604;2023-06-22T01:47:40;7.28;;;4.50;;
46288;SDS011;63105;46.158;14.604;2023-06-22T01:50:06;6.97;;;4.90;;
46288;SDS011;63105;46.158;14.604;2023-06-22T01:52:31;7.47;;;4.97;;
46288;SDS011;63105;46.158;14.604;2023-06-22T01:54:58;6.47;;;4.75;;
46288;SDS011;63105;46.158;14.604;2023-06-22T01:57:24;6.97;;;4.80;;
46288;SDS011;63105;46.158;14.604;2023-06-22T01:59:58;7.38;;;4.53;;
46288;SDS011;63105;46.158;14.604;2023-06-22T02:02:24;7.03;;;4.75;;
46288;SDS011;63105;46.158;14.604;2023-06-22T02:04:55;6.72;;;4.80;;
46288;SDS011;63105;46.158;14.604;2023-06-22T02:07:23;8.07;;;4.85;;
46288;SDS011;63105;46.158;14.604;2023-06-22T02:09:48;7.15;;;4.68;;
46288;SDS011;63105;46.158;14.604;2023-06-22T02:12:17;6.53;;;4.50;;
46288;SDS011;63105;46.158;14.604;2023-06-22T02:14:43;8.02;;;4.70;;
46288;SDS011;63105;46.158;14.604;2023-06-22T02:17:09;8.55;;;4.70;;
46288;SDS011;63105;46.158;14.604;2023-06-22T02:19:37;8.27;;;5.30;;
46288;SDS011;63105;46.158;14.604;2023-06-22T02:22:03;8.90;;;5.03;;
46288;SDS011;63105;46.158;14.604;2023-06-22T02:24:28;7.65;;;4.95;;
46288;SDS011;63105;46.158;14.604;2023-06-22T02:26:56;8.40;;;5.28;;
46288;SDS011;63105;46.158;14.604;2023-06-22T02:29:22;6.97;;;4.70;;
46288;SDS011;63105;46.158;14.604;2023-06-22T02:31:47;6.50;;;5.17;;
46288;SDS011;63105;46.158;14.604;2023-06-22T02:34:12;7.37;;;4.53;;
46288;SDS011;63105;46.158;14.604;2023-06-22T02:36:43;6.88;;;4.57;;
46288;SDS011;63105;46.158;14.604;2023-06-22T02:39:15;8.02;;;4.88;;
46288;SDS011;63105;46.158;14.604;2023-06-22T02:41:40;9.38;;;4.97;;
46288;SDS011;63105;46.158;14.604;2023-06-22T02:44:05;7.00;;;4.87;;
46288;SDS011;63105;46.158;14.604;2023-06-22T02:46:31;7.33;;;5.20;;
46288;SDS011;63105;46.158;14.604;2023-06-22T02:48:56;6.50;;;4.40;;
46288;SDS011;63105;46.158;14.604;2023-06-22T02:51:21;7.00;;;4.80;;
46288;SDS011;63105;46.158;14.604;2023-06-22T02:53:46;7.43;;;5.07;;
46288;SDS011;63105;46.158;14.604;2023-06-22T02:56:12;7.00;;;4.80;;
46288;SDS011;63105;46.158;14.604;2023-06-22T02:58:38;6.90;;;4.93;;
46288;SDS011;63105;46.158;14.604;2023-06-22T03:01:07;6.85;;;4.82;;
46288;SDS011;63105;46.158;14.604;2023-06-22T03:03:32;6.50;;;4.45;;
46288;SDS011;63105;46.158;14.604;2023-06-22T03:05:57;7.00;;;4.77;;
46288;SDS011;63105;46.158;14.604;2023-06-22T03:08:23;6.43;;;4.40;;
46288;SDS011;63105;46.158;14.604;2023-06-22T03:10:48;7.67;;;4.70;;
46288;SDS011;63105;46.158;14.604;2023-06-22T03:13:13;6.23;;;4.57;;
46288;SDS011;63105;46.158;14.604;2023-06-22T03:15:38;8.13;;;5.00;;
46288;SDS011;63105;46.158;14.604;2023-06-22T03:18:03;7.40;;;4.70;;
46288;SDS011;63105;46.158;14.604;2023-06-22T03:20:32;7.82;;;5.07;;
46288;SDS011;63105;46.158;14.604;2023-06-22T03:22:58;7.45;;;5.20;;
46288;SDS011;63105;46.158;14.604;2023-06-22T03:25:23;6.70;;;4.87;;
46288;SDS011;63105;46.158;14.604;2023-06-22T03:27:49;9.17;;;5.10;;
46288;SDS011;63105;46.158;14.604;2023-06-22T03:30:14;7.40;;;5.00;;
46288;SDS011;63105;46.158;14.604;2023-06-22T03:32:39;8.05;;;4.85;;
46288;SDS011;63105;46.158;14.604;2023-06-22T03:35:04;7.22;;;5.25;;
46288;SDS011;63105;46.158;14.604;2023-06-22T03:37:31;8.60;;;4.75;;
46288;SDS011;63105;46.158;14.604;2023-06-22T03:39:56;8.77;;;5.47;;
46288;SDS011;63105;46.158;14.604;2023-06-22T03:42:21;8.17;;;5.13;;
46288;SDS011;63105;46.158;14.604;2023-06-22T03:44:46;7.70;;;5.20;;
46288;SDS011;63105;46.158;14.604;2023-06-22T03:47:12;7.85;;;5.13;;
46288;SDS011;63105;46.158;14.604;2023-06-22T03:49:37;6.20;;;4.60;;
46288;SDS011;63105;46.158;14.604;2023-06-22T03:52:02;7.60;;;5.07;;
46288;SDS011;63105;46.158;14.604;2023-06-22T03:54:28;8.70;;;5.30;;
46288;SDS011;63105;46.158;14.604;2023-06-22T03:56:53;7.32;;;5.07;;
46288;SDS011;63105;46.158;14.604;2023-06-22T03:59:19;6.13;;;4.70;;
46288;SDS011;63105;46.158;14.604;2023-06-22T04:01:44;7.70;;;5.23;;
46288;SDS011;63105;46.158;14.604;2023-06-22T04:04:09;7.10;;;4.85;;
46288;SDS011;63105;46.158;14.604;2023-06-22T04:06:35;9.17;;;5.20;;
46288;SDS011;63105;46.158;14.604;2023-06-22T04:09:00;8.00;;;5.60;;
46288;SDS011;63105;46.158;14.604;2023-06-22T04:11:26;6.85;;;5.20;;
46288;SDS011;63105;46.158;14.604;2023-06-22T04:13:51;7.15;;;4.75;;
46288;SDS011;63105;46.158;14.604;2023-06-22T04:16:16;6.55;;;4.80;;
46288;SDS011;63105;46.158;14.604;2023-06-22T04:18:41;6.90;;;4.93;;
46288;SDS011;63105;46.158;14.604;2023-06-22T04:21:06;8.40;;;5.03;;
46288;SDS011;63105;46.158;14.604;2023-06-22T04:23:32;6.47;;;5.13;;
46288;SDS011;63105;46.158;14.604;2023-06-22T04:25:57;7.97;;;5.00;;
46288;SDS011;63105;46.158;14.604;2023-06-22T04:28:24;7.32;;;4.82;;
46288;SDS011;63105;46.158;14.604;2023-06-22T04:30:49;7.40;;;5.07;;
46288;SDS011;63105;46.158;14.604;2023-06-22T04:33:15;6.32;;;4.63;;
46288;SDS011;63105;46.158;14.604;2023-06-22T04:35:41;7.90;;;4.88;;
46288;SDS011;63105;46.158;14.604;2023-06-22T04:38:06;6.05;;;4.30;;
46288;SDS011;63105;46.158;14.604;2023-06-22T04:40:32;6.28;;;4.85;;
46288;SDS011;63105;46.158;14.604;2023-06-22T04:42:57;8.00;;;4.77;;
46288;SDS011;63105;46.158;14.604;2023-06-22T04:45:22;6.90;;;4.60;;
46288;SDS011;63105;46.158;14.604;2023-06-22T04:47:47;7.30;;;5.10;;
46288;SDS011;63105;46.158;14.604;2023-06-22T04:50:13;7.30;;;4.60;;
46288;SDS011;63105;46.158;14.604;2023-06-22T04:52:38;6.40;;;4.97;;
46288;SDS011;63105;46.158;14.604;2023-06-22T04:55:04;7.43;;;5.13;;
46288;SDS011;63105;46.158;14.604;2023-06-22T04:57:29;5.85;;;4.50;;
46288;SDS011;63105;46.158;14.604;2023-06-22T04:59:57;7.47;;;5.00;;
46288;SDS011;63105;46.158;14.604;2023-06-22T05:02:26;6.18;;;4.88;;
46288;SDS011;63105;46.158;14.604;2023-06-22T05:04:52;7.00;;;4.90;;
46288;SDS011;63105;46.158;14.604;2023-06-22T05:07:21;7.55;;;5.20;;
46288;SDS011;63105;46.158;14.604;2023-06-22T05:09:50;6.95;;;4.95;;
46288;SDS011;63105;46.158;14.604;2023-06-22T05:12:15;6.50;;;4.33;;
46288;SDS011;63105;46.158;14.604;2023-06-22T05:14:40;7.30;;;4.13;;
46288;SDS011;63105;46.158;14.604;2023-06-22T05:17:05;7.07;;;4.03;;
46288;SDS011;63105;46.158;14.604;2023-06-22T05:19:38;6.60;;;4.78;;
46288;SDS011;63105;46.158;14.604;2023-06-22T05:22:04;7.18;;;4.60;;
46288;SDS011;63105;46.158;14.604;2023-06-22T05:24:29;6.47;;;4.57;;
46288;SDS011;63105;46.158;14.604;2023-06-22T05:26:54;6.75;;;4.80;;
46288;SDS011;63105;46.158;14.604;2023-06-22T05:29:20;6.95;;;5.20;;
46288;SDS011;63105;46.158;14.604;2023-06-22T05:31:47;6.18;;;4.60;;
46288;SDS011;63105;46.158;14.604;2023-06-22T05:34:12;7.33;;;4.67;;
46288;SDS011;63105;46.158;14.604;2023-06-22T05:36:37;6.17;;;4.53;;
46288;SDS011;63105;46.158;14.604;2023-06-22T05:39:10;7.30;;;5.00;;
46288;SDS011;63105;46.158;14.604;2023-06-22T05:41:36;5.85;;;4.32;;
46288;SDS011;63105;46.158;14.604;2023-06-22T05:44:01;6.63;;;4.87;;
46288;SDS011;63105;46.158;14.604;2023-06-22T05:46:27;6.45;;;4.55;;
46288;SDS011;63105;46.158;14.604;2023-06-22T05:48:52;8.50;;;5.33;;
46288;SDS011;63105;46.158;14.604;2023-06-22T05:51:17;7.37;;;5.27;;
46288;SDS011;63105;46.158;14.604;2023-06-22T05:53:42;6.67;;;4.80;;
46288;SDS011;63105;46.158;14.604;2023-06-22T05:56:09;6.32;;;4.60;;
46288;SDS011;63105;46.158;14.604;2023-06-22T05:58:35;6.73;;;5.27;;
46288;SDS011;63105;46.158;14.604;2023-06-22T06:01:00;6.47;;;5.03;;
46288;SDS011;63105;46.158;14.604;2023-06-22T06:03:25;7.63;;;5.00;;
46288;SDS011;63105;46.158;14.604;2023-06-22T06:05:52;7.30;;;4.68;;
46288;SDS011;63105;46.158;14.604;2023-06-22T06:08:17;7.40;;;4.90;;
46288;SDS011;63105;46.158;14.604;2023-06-22T06:10:42;9.93;;;6.70;;
46288;SDS011;63105;46.158;14.604;2023-06-22T06:13:08;11.60;;;7.40;;
46288;SDS011;63105;46.158;14.604;2023-06-22T06:15:33;9.90;;;6.40;;
46288;SDS011;63105;46.158;14.604;2023-06-22T06:17:59;7.30;;;5.53;;
46288;SDS011;63105;46.158;14.604;2023-06-22T06:20:25;7.07;;;5.53;;
46288;SDS011;63105;46.158;14.604;2023-06-22T06:22:51;7.45;;;5.45;;
46288;SDS011;63105;46.158;14.604;2023-06-22T06:25:16;7.85;;;5.72;;
46288;SDS011;63105;46.158;14.604;2023-06-22T06:27:45;7.27;;;5.20;;
46288;SDS011;63105;46.158;14.604;2023-06-22T06:30:10;10.35;;;6.75;;
46288;SDS011;63105;46.158;14.604;2023-06-22T06:32:36;9.63;;;6.50;;
46288;SDS011;63105;46.158;14.604;2023-06-22T06:35:01;7.80;;;6.50;;
46288;SDS011;63105;46.158;14.604;2023-06-22T06:37:26;9.63;;;5.90;;
46288;SDS011;63105;46.158;14.604;2023-06-22T06:39:52;7.85;;;6.22;;
46288;SDS011;63105;46.158;14.604;2023-06-22T06:42:18;7.47;;;6.07;;
46288;SDS011;63105;46.158;14.604;2023-06-22T06:44:44;8.02;;;6.00;;
46288;SDS011;63105;46.158;14.604;2023-06-22T06:47:09;11.80;;;7.97;;
46288;SDS011;63105;46.158;14.604;2023-06-22T06:49:35;9.35;;;7.03;;
46288;SDS011;63105;46.158;14.604;2023-06-22T06:52:00;8.10;;;6.05;;
46288;SDS011;63105;46.158;14.604;2023-06-22T06:54:26;8.85;;;5.93;;
46288;SDS011;63105;46.158;14.604;2023-06-22T06:56:52;8.77;;;6.28;;
46288;SDS011;63105;46.158;14.604;2023-06-22T06:59:17;8.67;;;6.47;;
46288;SDS011;63105;46.158;14.604;2023-06-22T07:01:42;10.07;;;6.43;;
46288;SDS011;63105;46.158;14.604;2023-06-22T07:04:09;8.88;;;6.57;;
46288;SDS011;63105;46.158;14.604;2023-06-22T07:06:34;7.80;;;6.27;;
46288;SDS011;63105;46.158;14.604;2023-06-22T07:08:59;12.07;;;7.13;;
46288;SDS011;63105;46.158;14.604;2023-06-22T07:11:25;9.75;;;6.55;;
46288;SDS011;63105;46.158;14.604;2023-06-22T07:13:50;9.43;;;6.40;;
46288;SDS011;63105;46.158;14.604;2023-06-22T07:16:16;10.90;;;6.97;;
46288;SDS011;63105;46.158;14.604;2023-06-22T07:18:41;8.93;;;7.10;;
46288;SDS011;63105;46.158;14.604;2023-06-22T07:21:06;8.63;;;6.83;;
46288;SDS011;63105;46.158;14.604;2023-06-22T07:23:32;10.55;;;6.72;;
46288;SDS011;63105;46.158;14.604;2023-06-22T07:25:57;7.75;;;6.68;;
46288;SDS011;63105;46.158;14.604;2023-06-22T07:28:22;8.90;;;6.70;;
46288;SDS011;63105;46.158;14.604;2023-06-22T07:30:47;8.63;;;6.60;;
46288;SDS011;63105;46.158;14.604;2023-06-22T07:33:12;8.43;;;6.50;;
46288;SDS011;63105;46.158;14.604;2023-06-22T07:35:38;9.67;;;6.93;;
46288;SDS011;63105;46.158;14.604;2023-06-22T07:38:03;9.82;;;6.88;;
46288;SDS011;63105;46.158;14.604;2023-06-22T07:40:28;9.88;;;6.68;;
46288;SDS011;63105;46.158;14.604;2023-06-22T07:42:53;8.90;;;6.53;;
46288;SDS011;63105;46.158;14.604;2023-06-22T07:45:19;9.93;;;6.60;;
46288;SDS011;63105;46.158;14.604;2023-06-22T07:47:44;8.30;;;6.20;;
46288;SDS011;63105;46.158;14.604;2023-06-22T07:50:09;8.57;;;6.37;;
46288;SDS011;63105;46.158;14.604;2023-06-22T07:52:35;8.75;;;6.55;;
46288;SDS011;63105;46.158;14.604;2023-06-22T07:55:00;8.55;;;6.35;;
46288;SDS011;63105;46.158;14.604;2023-06-22T07:57:25;10.23;;;6.72;;
46288;SDS011;63105;46.158;14.604;2023-06-22T07:59:58;8.88;;;6.28;;
46288;SDS011;63105;46.158;14.604;2023-06-22T08:02:24;10.25;;;6.88;;
46288;SDS011;63105;46.158;14.604;2023-06-22T08:04:49;8.73;;;6.47;;
46288;SDS011;63105;46.158;14.604;2023-06-22T08:07:15;9.27;;;6.47;;
46288;SDS011;63105;46.158;14.604;2023-06-22T08:09:42;9.02;;;7.10;;
46288;SDS011;63105;46.158;14.604;2023-06-22T08:12:10;10.50;;;7.03;;
46288;SDS011;63105;46.158;14.604;2023-06-22T08:14:37;9.18;;;6.57;;
46288;SDS011;63105;46.158;14.604;2023-06-22T08:17:03;9.80;;;7.20;;
46288;SDS011;63105;46.158;14.604;2023-06-22T08:19:28;12.90;;;7.82;;
46288;SDS011;63105;46.158;14.604;2023-06-22T08:21:53;9.90;;;7.40;;
46288;SDS011;63105;46.158;14.604;2023-06-22T08:24:18;10.70;;;7.33;;
46288;SDS011;63105;46.158;14.604;2023-06-22T08:26:43;8.10;;;6.00;;
46288;SDS011;63105;46.158;14.604;2023-06-22T08:29:09;8.47;;;6.30;;
46288;SDS011;63105;46.158;14.604;2023-06-22T08:31:34;11.10;;;6.60;;
46288;SDS011;63105;46.158;14.604;2023-06-22T08:33:59;12.07;;;7.75;;
46288;SDS011;63105;46.158;14.604;2023-06-22T08:36:25;11.20;;;7.37;;
46288;SDS011;63105;46.158;14.604;2023-06-22T08:38:50;9.70;;;6.67;;
46288;SDS011;63105;46.158;14.604;2023-06-22T08:41:16;9.50;;;6.60;;
46288;SDS011;63105;46.158;14.604;2023-06-22T08:43:42;7.28;;;5.72;;
46288;SDS011;63105;46.158;14.604;2023-06-22T08:46:09;9.40;;;5.60;;
46288;SDS011;63105;46.158;14.604;2023-06-22T08:48:34;9.52;;;6.82;;
46288;SDS011;63105;46.158;14.604;2023-06-22T08:50:59;8.77;;;6.30;;
46288;SDS011;63105;46.158;14.604;2023-06-22T08:53:24;8.77;;;5.97;;
46288;SDS011;63105;46.158;14.604;2023-06-22T08:55:50;8.33;;;5.73;;
46288;SDS011;63105;46.158;14.604;2023-06-22T08:58:15;9.63;;;7.07;;
46288;SDS011;63105;46.158;14.604;2023-06-22T09:00:41;8.37;;;6.30;;
46288;SDS011;63105;46.158;14.604;2023-06-22T09:03:06;8.90;;;5.87;;
46288;SDS011;63105;46.158;14.604;2023-06-22T09:05:31;8.00;;;6.37;;
46288;SDS011;63105;46.158;14.604;2023-06-22T09:07:56;6.65;;;5.13;;
46288;SDS011;63105;46.158;14.604;2023-06-22T09:10:23;6.80;;;5.43;;
46288;SDS011;63105;46.158;14.604;2023-06-22T09:12:48;8.23;;;5.53;;
46288;SDS011;63105;46.158;14.604;2023-06-22T09:15:14;8.10;;;5.40;;
46288;SDS011;63105;46.158;14.604;2023-06-22T09:17:40;7.60;;;5.07;;
46288;SDS011;63105;46.158;14.604;2023-06-22T09:20:05;7.28;;;5.30;;
46288;SDS011;63105;46.158;14.604;2023-06-22T09:22:31;7.15;;;5.15;;
46288;SDS011;63105;46.158;14.604;2023-06-22T09:24:56;6.97;;;4.80;;
46288;SDS011;63105;46.158;14.604;2023-06-22T09:27:22;8.13;;;5.15;;
46288;SDS011;63105;46.158;14.604;2023-06-22T09:29:47;7.65;;;5.25;;
46288;SDS011;63105;46.158;14.604;2023-06-22T09:32:12;6.88;;;4.90;;
46288;SDS011;63105;46.158;14.604;2023-06-22T09:34:38;6.90;;;5.10;;
46288;SDS011;63105;46.158;14.604;2023-06-22T09:37:03;5.88;;;4.63;;
46288;SDS011;63105;46.158;14.604;2023-06-22T09:39:28;6.75;;;4.90;;
46288;SDS011;63105;46.158;14.604;2023-06-22T09:41:54;7.07;;;4.50;;
46288;SDS011;63105;46.158;14.604;2023-06-22T09:44:19;6.00;;;4.67;;
46288;SDS011;63105;46.158;14.604;2023-06-22T09:46:44;6.50;;;4.87;;
46288;SDS011;63105;46.158;14.604;2023-06-22T09:49:09;6.90;;;4.80;;
46288;SDS011;63105;46.158;14.604;2023-06-22T09:51:34;8.93;;;5.50;;
46288;SDS011;63105;46.158;14.604;2023-06-22T09:54:00;6.60;;;5.03;;
46288;SDS011;63105;46.158;14.604;2023-06-22T09:56:25;6.93;;;5.30;;
46288;SDS011;63105;46.158;14.604;2023-06-22T09:58:53;6.95;;;5.20;;
46288;SDS011;63105;46.158;14.604;2023-06-22T10:01:18;7.53;;;4.90;;
46288;SDS011;63105;46.158;14.604;2023-06-22T10:03:43;6.80;;;4.70;;
46288;SDS011;63105;46.158;14.604;2023-06-22T10:06:08;7.80;;;5.33;;
46288;SDS011;63105;46.158;14.604;2023-06-22T10:08:37;7.50;;;4.93;;
46288;SDS011;63105;46.158;14.604;2023-06-22T10:11:03;5.90;;;4.30;;
46288;SDS011;63105;46.158;14.604;2023-06-22T10:13:28;6.10;;;4.82;;
46288;SDS011;63105;46.158;14.604;2023-06-22T10:15:53;5.80;;;4.57;;
46288;SDS011;63105;46.158;14.604;2023-06-22T10:18:18;8.77;;;5.03;;
46288;SDS011;63105;46.158;14.604;2023-06-22T10:20:44;7.93;;;5.22;;
46288;SDS011;63105;46.158;14.604;2023-06-22T10:23:10;6.72;;;5.45;;
46288;SDS011;63105;46.158;14.604;2023-06-22T10:25:35;7.93;;;5.23;;
46288;SDS011;63105;46.158;14.604;2023-06-22T10:28:00;5.17;;;4.43;;
46288;SDS011;63105;46.158;14.604;2023-06-22T10:30:25;5.72;;;4.57;;
46288;SDS011;63105;46.158;14.604;2023-06-22T10:32:51;8.43;;;4.70;;
46288;SDS011;63105;46.158;14.604;2023-06-22T10:35:16;5.87;;;4.83;;
46288;SDS011;63105;46.158;14.604;2023-06-22T10:37:44;5.53;;;4.50;;
46288;SDS011;63105;46.158;14.604;2023-06-22T10:40:11;6.65;;;4.97;;
46288;SDS011;63105;46.158;14.604;2023-06-22T10:42:36;6.53;;;4.70;;
46288;SDS011;63105;46.158;14.604;2023-06-22T10:45:01;8.03;;;5.30;;
46288;SDS011;63105;46.158;14.604;2023-06-22T10:47:27;5.82;;;4.50;;
46288;SDS011;63105;46.158;14.604;2023-06-22T10:49:52;6.03;;;4.93;;
46288;SDS011;63105;46.158;14.604;2023-06-22T10:52:18;7.27;;;5.50;;
46288;SDS011;63105;46.158;14.604;2023-06-22T10:54:43;7.23;;;4.90;;
46288;SDS011;63105;46.158;14.604;2023-06-22T10:57:08;5.90;;;4.33;;
46288;SDS011;63105;46.158;14.604;2023-06-22T10:59:33;5.50;;;4.30;;
46288;SDS011;63105;46.158;14.604;2023-06-22T11:01:58;6.13;;;4.53;;
46288;SDS011;63105;46.158;14.604;2023-06-22T11:04:24;6.40;;;4.80;;
46288;SDS011;63105;46.158;14.604;2023-06-22T11:06:49;7.82;;;5.10;;
46288;SDS011;63105;46.158;14.604;2023-06-22T11:09:15;6.65;;;4.90;;
46288;SDS011;63105;46.158;14.604;2023-06-22T11:11:45;8.13;;;5.65;;
46288;SDS011;63105;46.158;14.604;2023-06-22T11:14:11;7.65;;;5.75;;
46288;SDS011;63105;46.158;14.604;2023-06-22T11:16:36;10.30;;;5.43;;
46288;SDS011;63105;46.158;14.604;2023-06-22T11:19:01;8.83;;;5.00;;
46288;SDS011;63105;46.158;14.604;2023-06-22T11:21:28;7.05;;;5.13;;
46288;SDS011;63105;46.158;14.604;2023-06-22T11:23:53;6.40;;;4.70;;
46288;SDS011;63105;46.158;14.604;2023-06-22T11:26:18;7.33;;;4.77;;
46288;SDS011;63105;46.158;14.604;2023-06-22T11:28:43;6.70;;;5.27;;
46288;SDS011;63105;46.158;14.604;2023-06-22T11:31:09;8.57;;;5.40;;
46288;SDS011;63105;46.158;14.604;2023-06-22T11:33:34;8.75;;;5.28;;
46288;SDS011;63105;46.158;14.604;2023-06-22T11:35:59;7.33;;;4.57;;
46288;SDS011;63105;46.158;14.604;2023-06-22T11:38:25;6.15;;;4.35;;
46288;SDS011;63105;46.158;14.604;2023-06-22T11:40:50;6.05;;;4.80;;
46288;SDS011;63105;46.158;14.604;2023-06-22T11:43:15;7.03;;;5.33;;
46288;SDS011;63105;46.158;14.604;2023-06-22T11:45:41;11.52;;;5.78;;
46288;SDS011;63105;46.158;14.604;2023-06-22T11:48:06;7.33;;;5.30;;
46288;SDS011;63105;46.158;14.604;2023-06-22T11:50:31;8.63;;;5.63;;
46288;SDS011;63105;46.158;14.604;2023-06-22T11:53:00;8.95;;;6.20;;
46288;SDS011;63105;46.158;14.604;2023-06-22T11:55:26;7.37;;;5.00;;
46288;SDS011;63105;46.158;14.604;2023-06-22T11:57:53;8.13;;;5.17;;
46288;SDS011;63105;46.158;14.604;2023-06-22T12:00:18;8.63;;;6.15;;
46288;SDS011;63105;46.158;14.604;2023-06-22T12:02:44;9.70;;;5.90;;
46288;SDS011;63105;46.158;14.604;2023-06-22T12:05:10;8.20;;;5.95;;
46288;SDS011;63105;46.158;14.604;2023-06-22T12:07:35;8.63;;;5.53;;
46288;SDS011;63105;46.158;14.604;2023-06-22T12:10:01;11.05;;;6.20;;
46288;SDS011;63105;46.158;14.604;2023-06-22T12:12:26;9.20;;;5.95;;
46288;SDS011;63105;46.158;14.604;2023-06-22T12:14:51;7.47;;;5.10;;
46288;SDS011;63105;46.158;14.604;2023-06-22T12:17:17;7.22;;;5.18;;
46288;SDS011;63105;46.158;14.604;2023-06-22T12:19:42;8.87;;;5.40;;
46288;SDS011;63105;46.158;14.604;2023-06-22T12:22:07;5.60;;;4.60;;
46288;SDS011;63105;46.158;14.604;2023-06-22T12:24:32;6.87;;;5.00;;
46288;SDS011;63105;46.158;14.604;2023-06-22T12:26:57;7.47;;;5.47;;
46288;SDS011;63105;46.158;14.604;2023-06-22T12:29:23;8.40;;;5.87;;
46288;SDS011;63105;46.158;14.604;2023-06-22T12:31:48;8.33;;;5.77;;
46288;SDS011;63105;46.158;14.604;2023-06-22T12:34:13;9.90;;;7.03;;
46288;SDS011;63105;46.158;14.604;2023-06-22T12:36:38;11.83;;;7.17;;
46288;SDS011;63105;46.158;14.604;2023-06-22T12:39:03;11.00;;;6.47;;
46288;SDS011;63105;46.158;14.604;2023-06-22T12:41:29;8.50;;;5.93;;
46288;SDS011;63105;46.158;14.604;2023-06-22T12:43:54;9.43;;;5.97;;
46288;SDS011;63105;46.158;14.604;2023-06-22T12:46:19;10.83;;;6.13;;
46288;SDS011;63105;46.158;14.604;2023-06-22T12:48:44;10.17;;;5.70;;
46288;SDS011;63105;46.158;14.604;2023-06-22T12:51:09;10.93;;;6.83;;
46288;SDS011;63105;46.158;14.604;2023-06-22T12:53:35;9.17;;;5.83;;
46288;SDS011;63105;46.158;14.604;2023-06-22T12:56:00;8.15;;;5.65;;
46288;SDS011;63105;46.158;14.604;2023-06-22T12:58:25;7.60;;;4.90;;
46288;SDS011;63105;46.158;14.604;2023-06-22T13:00:50;7.07;;;5.33;;
46288;SDS011;63105;46.158;14.604;2023-06-22T13:03:16;7.20;;;5.80;;
46288;SDS011;63105;46.158;14.604;2023-06-22T13:05:41;7.22;;;5.78;;
46288;SDS011;63105;46.158;14.604;2023-06-22T13:08:06;7.27;;;5.57;;
46288;SDS011;63105;46.158;14.604;2023-06-22T13:10:33;6.57;;;5.30;;
46288;SDS011;63105;46.158;14.604;2023-06-22T13:12:58;8.83;;;5.50;;
46288;SDS011;63105;46.158;14.604;2023-06-22T13:15:26;11.10;;;6.28;;
46288;SDS011;63105;46.158;14.604;2023-06-22T13:17:51;8.52;;;5.60;;
46288;SDS011;63105;46.158;14.604;2023-06-22T13:20:17;8.20;;;5.82;;
46288;SDS011;63105;46.158;14.604;2023-06-22T13:22:42;10.63;;;6.80;;
46288;SDS011;63105;46.158;14.604;2023-06-22T13:25:09;8.63;;;5.93;;
46288;SDS011;63105;46.158;14.604;2023-06-22T13:27:41;8.90;;;5.30;;
46288;SDS011;63105;46.158;14.604;2023-06-22T13:30:06;8.32;;;6.00;;
46288;SDS011;63105;46.158;14.604;2023-06-22T13:32:32;6.72;;;5.10;;
46288;SDS011;63105;46.158;14.604;2023-06-22T13:34:57;7.57;;;5.40;;
46288;SDS011;63105;46.158;14.604;2023-06-22T13:37:22;7.57;;;5.35;;
46288;SDS011;63105;46.158;14.604;2023-06-22T13:39:47;8.20;;;5.57;;
46288;SDS011;63105;46.158;14.604;2023-06-22T13:42:13;8.53;;;5.47;;
46288;SDS011;63105;46.158;14.604;2023-06-22T13:44:38;8.77;;;5.60;;
46288;SDS011;63105;46.158;14.604;2023-06-22T13:47:03;8.33;;;4.73;;
46288;SDS011;63105;46.158;14.604;2023-06-22T13:49:29;7.95;;;5.25;;
46288;SDS011;63105;46.158;14.604;2023-06-22T13:51:55;9.70;;;6.32;;
46288;SDS011;63105;46.158;14.604;2023-06-22T13:54:20;11.80;;;6.33;;
46288;SDS011;63105;46.158;14.604;2023-06-22T13:56:45;11.10;;;7.20;;
46288;SDS011;63105;46.158;14.604;2023-06-22T13:59:10;9.10;;;5.60;;
46288;SDS011;63105;46.158;14.604;2023-06-22T14:01:36;8.93;;;5.63;;
46288;SDS011;63105;46.158;14.604;2023-06-22T14:04:01;8.13;;;5.70;;
46288;SDS011;63105;46.158;14.604;2023-06-22T14:06:27;8.60;;;6.10;;
46288;SDS011;63105;46.158;14.604;2023-06-22T14:08:52;7.63;;;5.70;;
46288;SDS011;63105;46.158;14.604;2023-06-22T14:11:17;8.37;;;5.17;;
46288;SDS011;63105;46.158;14.604;2023-06-22T14:13:42;9.60;;;6.33;;
46288;SDS011;63105;46.158;14.604;2023-06-22T14:16:08;9.53;;;6.40;;
46288;SDS011;63105;46.158;14.604;2023-06-22T14:18:33;8.57;;;5.75;;
46288;SDS011;63105;46.158;14.604;2023-06-22T14:20:58;7.97;;;5.93;;
46288;SDS011;63105;46.158;14.604;2023-06-22T14:23:24;7.43;;;6.07;;
46288;SDS011;63105;46.158;14.604;2023-06-22T14:25:49;8.30;;;5.60;;
46288;SDS011;63105;46.158;14.604;2023-06-22T14:28:14;7.87;;;6.10;;
46288;SDS011;63105;46.158;14.604;2023-06-22T14:30:41;9.75;;;6.00;;
46288;SDS011;63105;46.158;14.604;2023-06-22T14:33:06;9.83;;;6.40;;
46288;SDS011;63105;46.158;14.604;2023-06-22T14:35:31;8.60;;;5.80;;